sensor_id;sensor_type;location;lat;lon;timestamp;pressure;altitude;pressure_sealevel;temperature;humidity
61361;BME280;47232;47.506;18.936;2022-10-15T00:00:37;98533.24;;;13.84;64.88
61361;BME280;47232;47.506;18.936;2022-10-15T00:03:03;98528.65;;;13.85;64.88
61361;BME280;47232;47.506;18.936;2022-10-15T00:05:28;98528.59;;;13.86;65.08
61361;BME280;47232;47.506;18.936;2022-10-15T00:07:54;98530.82;;;13.85;65.01
61361;BME280;47232;47.506;18.936;2022-10-15T00:10:20;98533.19;;;13.85;65.05
61361;BME280;47232;47.506;18.936;2022-10-15T00:12:45;98531.76;;;13.84;65.37
61361;BME280;47232;47.506;18.936;2022-10-15T00:15:12;98526.63;;;13.81;65.31
61361;BME280;47232;47.506;18.936;2022-10-15T00:17:37;98527.79;;;13.81;65.42
61361;BME280;47232;47.506;18.936;2022-10-15T00:20:05;98531.39;;;13.83;65.50
61361;BME280;47232;47.506;18.936;2022-10-15T00:22:32;98531.56;;;13.85;65.80
61361;BME280;47232;47.506;18.936;2022-10-15T00:24:57;98532.63;;;13.86;65.84
61361;BME280;47232;47.506;18.936;2022-10-15T00:27:23;98529.00;;;13.88;65.96
61361;BME280;47232;47.506;18.936;2022-10-15T00:29:48;98532.36;;;13.89;65.91
61361;BME280;47232;47.506;18.936;2022-10-15T00:32:14;98533.33;;;13.90;65.91
61361;BME280;47232;47.506;18.936;2022-10-15T00:34:39;98525.59;;;13.92;65.89
61361;BME280;47232;47.506;18.936;2022-10-15T00:37:07;98517.91;;;13.92;65.90
61361;BME280;47232;47.506;18.936;2022-10-15T00:39:33;98515.70;;;13.90;66.19
61361;BME280;47232;47.506;18.936;2022-10-15T00:41:59;98515.48;;;13.89;66.11
61361;BME280;47232;47.506;18.936;2022-10-15T00:47:10;98510.18;;;13.87;66.22
61361;BME280;47232;47.506;18.936;2022-10-15T00:52:58;98500.85;;;13.81;66.51
61361;BME280;47232;47.506;18.936;2022-10-15T00:55:34;98500.85;;;13.81;66.57
61361;BME280;47232;47.506;18.936;2022-10-15T00:58:08;98497.14;;;13.80;66.70
61361;BME280;47232;47.506;18.936;2022-10-15T01:00:35;98497.48;;;13.81;66.68
61361;BME280;47232;47.506;18.936;2022-10-15T01:03:00;98497.92;;;13.81;66.67
61361;BME280;47232;47.506;18.936;2022-10-15T01:05:26;98493.46;;;13.81;66.67
61361;BME280;47232;47.506;18.936;2022-10-15T01:07:52;98492.08;;;13.82;66.52
61361;BME280;47232;47.506;18.936;2022-10-15T01:10:19;98489.31;;;13.82;66.45
61361;BME280;47232;47.506;18.936;2022-10-15T01:12:55;98494.60;;;13.81;66.77
61361;BME280;47232;47.506;18.936;2022-10-15T01:18:22;98492.68;;;13.77;66.62
61361;BME280;47232;47.506;18.936;2022-10-15T01:26:30;98482.92;;;13.79;66.80
61361;BME280;47232;47.506;18.936;2022-10-15T01:29:25;98488.39;;;13.80;66.80
61361;BME280;47232;47.506;18.936;2022-10-15T01:40:14;98481.94;;;13.69;66.99
61361;BME280;47232;47.506;18.936;2022-10-15T01:42:57;98481.13;;;13.66;67.16
61361;BME280;47232;47.506;18.936;2022-10-15T01:45:33;98477.90;;;13.63;67.16
61361;BME280;47232;47.506;18.936;2022-10-15T01:48:08;98471.86;;;13.61;67.03
61361;BME280;47232;47.506;18.936;2022-10-15T01:50:38;98473.52;;;13.60;67.23
61361;BME280;47232;47.506;18.936;2022-10-15T01:53:06;98472.30;;;13.58;67.50
61361;BME280;47232;47.506;18.936;2022-10-15T01:55:33;98473.70;;;13.56;67.66
61361;BME280;47232;47.506;18.936;2022-10-15T01:58:02;98476.51;;;13.57;67.72
61361;BME280;47232;47.506;18.936;2022-10-15T02:00:28;98476.64;;;13.59;67.99
61361;BME280;47232;47.506;18.936;2022-10-15T02:02:59;98482.70;;;13.61;67.90
61361;BME280;47232;47.506;18.936;2022-10-15T02:05:31;98480.61;;;13.61;67.95
61361;BME280;47232;47.506;18.936;2022-10-15T02:10:52;98480.36;;;13.61;67.86
61361;BME280;47232;47.506;18.936;2022-10-15T02:13:30;98482.48;;;13.58;68.01
61361;BME280;47232;47.506;18.936;2022-10-15T02:18:55;98482.95;;;13.52;68.19
61361;BME280;47232;47.506;18.936;2022-10-15T02:21:30;98483.38;;;13.47;68.01
61361;BME280;47232;47.506;18.936;2022-10-15T02:24:10;98481.27;;;13.47;68.02
61361;BME280;47232;47.506;18.936;2022-10-15T02:26:39;98472.61;;;13.48;67.95
61361;BME280;47232;47.506;18.936;2022-10-15T02:29:07;98471.42;;;13.47;68.13
61361;BME280;47232;47.506;18.936;2022-10-15T02:31:35;98466.55;;;13.47;68.11
61361;BME280;47232;47.506;18.936;2022-10-15T02:34:05;98461.71;;;13.48;68.10
61361;BME280;47232;47.506;18.936;2022-10-15T02:36:33;98462.35;;;13.49;67.98
61361;BME280;47232;47.506;18.936;2022-10-15T02:39:00;98461.73;;;13.49;67.95
61361;BME280;47232;47.506;18.936;2022-10-15T02:41:29;98459.44;;;13.49;67.88
61361;BME280;47232;47.506;18.936;2022-10-15T02:43:55;98457.38;;;13.48;67.86
61361;BME280;47232;47.506;18.936;2022-10-15T02:46:20;98461.05;;;13.45;67.80
61361;BME280;47232;47.506;18.936;2022-10-15T02:48:45;98463.91;;;13.40;67.77
61361;BME280;47232;47.506;18.936;2022-10-15T02:51:11;98462.57;;;13.35;67.88
61361;BME280;47232;47.506;18.936;2022-10-15T02:53:37;98459.45;;;13.33;67.93
61361;BME280;47232;47.506;18.936;2022-10-15T02:56:02;98453.06;;;13.33;67.85
61361;BME280;47232;47.506;18.936;2022-10-15T02:58:28;98452.42;;;13.33;67.66
61361;BME280;47232;47.506;18.936;2022-10-15T03:00:55;98447.71;;;13.33;67.41
61361;BME280;47232;47.506;18.936;2022-10-15T03:03:21;98450.48;;;13.32;67.44
61361;BME280;47232;47.506;18.936;2022-10-15T03:05:46;98448.83;;;13.32;67.15
61361;BME280;47232;47.506;18.936;2022-10-15T03:08:12;98440.91;;;13.31;67.17
61361;BME280;47232;47.506;18.936;2022-10-15T03:10:38;98441.17;;;13.30;66.73
61361;BME280;47232;47.506;18.936;2022-10-15T03:13:04;98441.12;;;13.26;66.72
61361;BME280;47232;47.506;18.936;2022-10-15T03:15:30;98436.40;;;13.24;66.66
61361;BME280;47232;47.506;18.936;2022-10-15T03:17:56;98441.26;;;13.20;66.57
61361;BME280;47232;47.506;18.936;2022-10-15T03:20:21;98441.45;;;13.19;66.71
61361;BME280;47232;47.506;18.936;2022-10-15T03:22:47;98439.64;;;13.20;66.70
61361;BME280;47232;47.506;18.936;2022-10-15T03:25:13;98436.29;;;13.22;66.61
61361;BME280;47232;47.506;18.936;2022-10-15T03:27:38;98437.09;;;13.22;66.56
61361;BME280;47232;47.506;18.936;2022-10-15T03:30:04;98437.16;;;13.24;66.38
61361;BME280;47232;47.506;18.936;2022-10-15T03:32:30;98442.91;;;13.24;66.20
61361;BME280;47232;47.506;18.936;2022-10-15T03:34:55;98445.01;;;13.23;66.27
61361;BME280;47232;47.506;18.936;2022-10-15T03:37:21;98449.02;;;13.23;66.31
61361;BME280;47232;47.506;18.936;2022-10-15T03:39:46;98452.06;;;13.22;66.24
61361;BME280;47232;47.506;18.936;2022-10-15T03:42:11;98453.40;;;13.21;66.22
61361;BME280;47232;47.506;18.936;2022-10-15T03:44:37;98446.91;;;13.18;66.25
61361;BME280;47232;47.506;18.936;2022-10-15T03:47:02;98452.26;;;13.12;66.24
61361;BME280;47232;47.506;18.936;2022-10-15T03:49:27;98449.45;;;13.06;66.09
61361;BME280;47232;47.506;18.936;2022-10-15T03:51:53;98449.46;;;13.02;66.29
61361;BME280;47232;47.506;18.936;2022-10-15T03:54:18;98453.54;;;13.00;66.33
61361;BME280;47232;47.506;18.936;2022-10-15T03:56:44;98452.10;;;12.99;66.37
61361;BME280;47232;47.506;18.936;2022-10-15T03:59:09;98450.03;;;12.99;66.47
61361;BME280;47232;47.506;18.936;2022-10-15T04:01:34;98446.10;;;12.99;66.55
61361;BME280;47232;47.506;18.936;2022-10-15T04:04:00;98438.86;;;12.98;66.58
61361;BME280;47232;47.506;18.936;2022-10-15T04:06:25;98436.13;;;12.95;66.70
61361;BME280;47232;47.506;18.936;2022-10-15T04:08:51;98437.38;;;12.90;66.66
61361;BME280;47232;47.506;18.936;2022-10-15T04:11:16;98434.14;;;12.89;66.65
61361;BME280;47232;47.506;18.936;2022-10-15T04:13:41;98436.09;;;12.87;66.62
61361;BME280;47232;47.506;18.936;2022-10-15T04:16:07;98431.33;;;12.86;66.74
61361;BME280;47232;47.506;18.936;2022-10-15T04:18:32;98433.94;;;12.84;66.69
61361;BME280;47232;47.506;18.936;2022-10-15T04:20:58;98430.83;;;12.81;66.71
61361;BME280;47232;47.506;18.936;2022-10-15T04:23:24;98436.11;;;12.80;66.82
61361;BME280;47232;47.506;18.936;2022-10-15T04:25:49;98436.64;;;12.78;67.01
61361;BME280;47232;47.506;18.936;2022-10-15T04:28:15;98437.57;;;12.78;66.95
61361;BME280;47232;47.506;18.936;2022-10-15T04:30:40;98440.06;;;12.78;66.97
61361;BME280;47232;47.506;18.936;2022-10-15T04:33:06;98441.30;;;12.78;67.07
61361;BME280;47232;47.506;18.936;2022-10-15T04:35:31;98444.66;;;12.78;67.07
61361;BME280;47232;47.506;18.936;2022-10-15T04:37:59;98447.42;;;12.76;67.13
61361;BME280;47232;47.506;18.936;2022-10-15T04:40:25;98448.64;;;12.73;67.00
61361;BME280;47232;47.506;18.936;2022-10-15T04:42:51;98451.58;;;12.70;67.01
61361;BME280;47232;47.506;18.936;2022-10-15T04:45:16;98448.98;;;12.65;67.04
61361;BME280;47232;47.506;18.936;2022-10-15T04:47:42;98446.60;;;12.60;66.94
61361;BME280;47232;47.506;18.936;2022-10-15T04:50:08;98447.21;;;12.55;67.03
61361;BME280;47232;47.506;18.936;2022-10-15T04:52:34;98446.94;;;12.48;67.16
61361;BME280;47232;47.506;18.936;2022-10-15T04:54:59;98444.73;;;12.41;67.12
61361;BME280;47232;47.506;18.936;2022-10-15T04:57:27;98441.48;;;12.36;67.32
61361;BME280;47232;47.506;18.936;2022-10-15T04:59:52;98443.55;;;12.32;67.41
61361;BME280;47232;47.506;18.936;2022-10-15T05:02:18;98439.80;;;12.29;67.56
61361;BME280;47232;47.506;18.936;2022-10-15T05:04:44;98441.93;;;12.29;67.67
61361;BME280;47232;47.506;18.936;2022-10-15T05:07:09;98447.86;;;12.29;67.75
61361;BME280;47232;47.506;18.936;2022-10-15T05:09:34;98446.80;;;12.29;68.00
61361;BME280;47232;47.506;18.936;2022-10-15T05:12:00;98445.79;;;12.30;68.10
61361;BME280;47232;47.506;18.936;2022-10-15T05:14:25;98447.91;;;12.31;68.12
61361;BME280;47232;47.506;18.936;2022-10-15T05:16:51;98452.86;;;12.32;68.06
61361;BME280;47232;47.506;18.936;2022-10-15T05:19:16;98455.30;;;12.31;68.12
61361;BME280;47232;47.506;18.936;2022-10-15T05:21:42;98454.42;;;12.30;68.10
61361;BME280;47232;47.506;18.936;2022-10-15T05:24:08;98455.40;;;12.28;68.10
61361;BME280;47232;47.506;18.936;2022-10-15T05:26:34;98455.75;;;12.25;68.08
61361;BME280;47232;47.506;18.936;2022-10-15T05:28:59;98456.41;;;12.22;68.17
61361;BME280;47232;47.506;18.936;2022-10-15T05:31:28;98451.34;;;12.18;68.12
61361;BME280;47232;47.506;18.936;2022-10-15T05:33:55;98447.56;;;12.15;68.38
61361;BME280;47232;47.506;18.936;2022-10-15T05:38:59;98441.86;;;12.14;68.31
61361;BME280;47232;47.506;18.936;2022-10-15T05:41:26;98438.76;;;12.16;68.45
61361;BME280;47232;47.506;18.936;2022-10-15T05:43:53;98441.59;;;12.19;68.51
61361;BME280;47232;47.506;18.936;2022-10-15T05:46:20;98448.70;;;12.21;68.52
61361;BME280;47232;47.506;18.936;2022-10-15T05:48:54;98447.16;;;12.23;68.45
61361;BME280;47232;47.506;18.936;2022-10-15T05:51:20;98450.33;;;12.23;68.58
61361;BME280;47232;47.506;18.936;2022-10-15T05:53:46;98446.01;;;12.23;68.67
61361;BME280;47232;47.506;18.936;2022-10-15T05:56:13;98452.30;;;12.22;68.59
61361;BME280;47232;47.506;18.936;2022-10-15T05:58:38;98451.78;;;12.21;68.56
61361;BME280;47232;47.506;18.936;2022-10-15T06:01:07;98449.15;;;12.19;68.55
61361;BME280;47232;47.506;18.936;2022-10-15T06:03:33;98451.46;;;12.17;68.53
61361;BME280;47232;47.506;18.936;2022-10-15T06:05:59;98446.00;;;12.16;68.66
61361;BME280;47232;47.506;18.936;2022-10-15T06:08:24;98458.32;;;12.18;68.77
61361;BME280;47232;47.506;18.936;2022-10-15T06:10:50;98463.24;;;12.21;68.98
61361;BME280;47232;47.506;18.936;2022-10-15T06:13:15;98467.09;;;12.25;69.01
61361;BME280;47232;47.506;18.936;2022-10-15T06:15:42;98476.49;;;12.32;69.08
61361;BME280;47232;47.506;18.936;2022-10-15T06:18:09;98477.38;;;12.40;69.30
61361;BME280;47232;47.506;18.936;2022-10-15T06:20:35;98481.38;;;12.48;69.11
61361;BME280;47232;47.506;18.936;2022-10-15T06:23:03;98480.11;;;12.57;69.12
61361;BME280;47232;47.506;18.936;2022-10-15T06:25:29;98483.71;;;12.65;69.07
61361;BME280;47232;47.506;18.936;2022-10-15T06:27:54;98487.45;;;12.71;69.03
61361;BME280;47232;47.506;18.936;2022-10-15T06:30:20;98489.41;;;12.75;68.84
61361;BME280;47232;47.506;18.936;2022-10-15T06:32:47;98492.56;;;12.79;68.82
61361;BME280;47232;47.506;18.936;2022-10-15T06:35:13;98493.16;;;12.84;68.87
61361;BME280;47232;47.506;18.936;2022-10-15T06:37:38;98489.02;;;12.88;68.71
61361;BME280;47232;47.506;18.936;2022-10-15T06:40:04;98487.92;;;12.93;68.60
61361;BME280;47232;47.506;18.936;2022-10-15T06:42:29;98492.05;;;12.97;68.48
61361;BME280;47232;47.506;18.936;2022-10-15T06:44:55;98497.89;;;13.02;68.46
61361;BME280;47232;47.506;18.936;2022-10-15T06:47:20;98499.65;;;13.09;68.27
61361;BME280;47232;47.506;18.936;2022-10-15T06:49:45;98504.98;;;13.17;68.15
61361;BME280;47232;47.506;18.936;2022-10-15T06:52:11;98506.09;;;13.26;68.14
61361;BME280;47232;47.506;18.936;2022-10-15T06:54:36;98503.92;;;13.36;67.93
61361;BME280;47232;47.506;18.936;2022-10-15T06:57:02;98508.03;;;13.43;67.74
61361;BME280;47232;47.506;18.936;2022-10-15T06:59:27;98510.55;;;13.52;67.32
61361;BME280;47232;47.506;18.936;2022-10-15T07:01:53;98517.02;;;13.54;67.24
61361;BME280;47232;47.506;18.936;2022-10-15T07:04:18;98522.38;;;13.58;67.03
61361;BME280;47232;47.506;18.936;2022-10-15T07:06:44;98527.80;;;13.64;66.91
61361;BME280;47232;47.506;18.936;2022-10-15T07:09:09;98526.45;;;13.67;66.76
61361;BME280;47232;47.506;18.936;2022-10-15T07:11:35;98525.39;;;13.69;66.81
61361;BME280;47232;47.506;18.936;2022-10-15T07:14:00;98523.19;;;13.72;66.45
61361;BME280;47232;47.506;18.936;2022-10-15T07:16:27;98523.30;;;13.75;66.48
61361;BME280;47232;47.506;18.936;2022-10-15T07:18:52;98515.15;;;13.79;66.14
61361;BME280;47232;47.506;18.936;2022-10-15T07:21:17;98514.91;;;13.80;65.32
61361;BME280;47232;47.506;18.936;2022-10-15T07:23:43;98515.70;;;13.84;65.64
61361;BME280;47232;47.506;18.936;2022-10-15T07:26:08;98512.27;;;13.93;65.59
61361;BME280;47232;47.506;18.936;2022-10-15T07:28:34;98513.51;;;14.06;65.57
61361;BME280;47232;47.506;18.936;2022-10-15T07:31:04;98518.73;;;14.19;65.18
61361;BME280;47232;47.506;18.936;2022-10-15T07:33:30;98511.23;;;14.32;64.44
61361;BME280;47232;47.506;18.936;2022-10-15T07:36:02;98504.83;;;14.42;63.94
61361;BME280;47232;47.506;18.936;2022-10-15T07:38:27;98504.49;;;14.52;63.58
61361;BME280;47232;47.506;18.936;2022-10-15T07:40:57;98504.66;;;14.61;63.12
61361;BME280;47232;47.506;18.936;2022-10-15T07:43:22;98515.79;;;14.69;62.43
61361;BME280;47232;47.506;18.936;2022-10-15T07:45:48;98508.73;;;14.75;61.63
61361;BME280;47232;47.506;18.936;2022-10-15T07:48:14;98510.19;;;14.79;61.65
61361;BME280;47232;47.506;18.936;2022-10-15T07:50:39;98512.19;;;14.83;61.62
61361;BME280;47232;47.506;18.936;2022-10-15T07:53:05;98512.06;;;14.86;61.21
61361;BME280;47232;47.506;18.936;2022-10-15T07:55:30;98517.86;;;14.90;61.37
61361;BME280;47232;47.506;18.936;2022-10-15T07:57:57;98515.66;;;14.96;60.82
61361;BME280;47232;47.506;18.936;2022-10-15T08:00:23;98518.84;;;15.01;60.66
61361;BME280;47232;47.506;18.936;2022-10-15T08:02:49;98528.56;;;15.04;60.17
61361;BME280;47232;47.506;18.936;2022-10-15T08:05:14;98530.39;;;15.10;59.77
61361;BME280;47232;47.506;18.936;2022-10-15T08:07:40;98526.54;;;15.15;59.56
61361;BME280;47232;47.506;18.936;2022-10-15T08:10:07;98534.59;;;15.21;59.14
61361;BME280;47232;47.506;18.936;2022-10-15T08:12:32;98536.20;;;15.25;59.15
61361;BME280;47232;47.506;18.936;2022-10-15T08:14:58;98545.27;;;15.30;59.11
61361;BME280;47232;47.506;18.936;2022-10-15T08:17:23;98546.20;;;15.35;58.89
61361;BME280;47232;47.506;18.936;2022-10-15T08:19:49;98540.83;;;15.39;58.80
61361;BME280;47232;47.506;18.936;2022-10-15T08:22:14;98538.88;;;15.45;58.97
61361;BME280;47232;47.506;18.936;2022-10-15T08:24:39;98539.39;;;15.54;58.78
61361;BME280;47232;47.506;18.936;2022-10-15T08:27:05;98542.23;;;15.63;58.60
61361;BME280;47232;47.506;18.936;2022-10-15T08:29:30;98537.30;;;15.72;58.40
61361;BME280;47232;47.506;18.936;2022-10-15T08:31:56;98542.30;;;15.81;58.09
61361;BME280;47232;47.506;18.936;2022-10-15T08:34:21;98548.95;;;15.90;57.91
61361;BME280;47232;47.506;18.936;2022-10-15T08:36:46;98549.90;;;15.98;57.11
61361;BME280;47232;47.506;18.936;2022-10-15T08:39:12;98544.60;;;16.05;56.62
61361;BME280;47232;47.506;18.936;2022-10-15T08:41:50;98542.51;;;16.11;56.59
61361;BME280;47232;47.506;18.936;2022-10-15T08:44:27;98542.77;;;16.26;56.75
61361;BME280;47232;47.506;18.936;2022-10-15T08:49:56;98535.84;;;16.57;55.95
61361;BME280;47232;47.506;18.936;2022-10-15T08:54:51;98540.20;;;16.86;54.74
61361;BME280;47232;47.506;18.936;2022-10-15T08:57:34;98541.98;;;17.01;54.13
61361;BME280;47232;47.506;18.936;2022-10-15T09:00:24;98536.91;;;17.18;54.18
61361;BME280;47232;47.506;18.936;2022-10-15T09:05:51;98540.96;;;17.36;53.30
61361;BME280;47232;47.506;18.936;2022-10-15T09:08:35;98538.63;;;17.35;53.13
61361;BME280;47232;47.506;18.936;2022-10-15T09:11:10;98549.11;;;17.32;53.00
61361;BME280;47232;47.506;18.936;2022-10-15T09:13:39;98551.27;;;17.28;53.12
61361;BME280;47232;47.506;18.936;2022-10-15T09:16:16;98562.75;;;17.28;53.26
61361;BME280;47232;47.506;18.936;2022-10-15T09:18:46;98567.77;;;17.26;53.31
61361;BME280;47232;47.506;18.936;2022-10-15T09:21:12;98574.60;;;17.26;53.36
61361;BME280;47232;47.506;18.936;2022-10-15T09:23:39;98575.09;;;17.27;53.04
61361;BME280;47232;47.506;18.936;2022-10-15T09:32:16;98570.80;;;17.47;53.22
61361;BME280;47232;47.506;18.936;2022-10-15T09:37:17;98566.09;;;17.73;53.02
61361;BME280;47232;47.506;18.936;2022-10-15T09:39:57;98560.90;;;17.86;52.35
61361;BME280;47232;47.506;18.936;2022-10-15T09:42:38;98565.91;;;17.94;52.30
61361;BME280;47232;47.506;18.936;2022-10-15T09:45:10;98566.79;;;18.04;52.07
61361;BME280;47232;47.506;18.936;2022-10-15T09:47:39;98563.91;;;18.19;51.71
61361;BME280;47232;47.506;18.936;2022-10-15T09:50:07;98568.86;;;18.31;51.55
61361;BME280;47232;47.506;18.936;2022-10-15T09:55:40;98577.39;;;18.65;51.06
61361;BME280;47232;47.506;18.936;2022-10-15T09:58:15;98569.35;;;18.82;50.92
61361;BME280;47232;47.506;18.936;2022-10-15T10:01:03;98561.67;;;19.03;50.59
61361;BME280;47232;47.506;18.936;2022-10-15T10:03:31;98556.02;;;19.25;50.26
61361;BME280;47232;47.506;18.936;2022-10-15T10:06:04;98559.13;;;19.44;49.28
61361;BME280;47232;47.506;18.936;2022-10-15T10:08:33;98551.98;;;19.59;49.31
61361;BME280;47232;47.506;18.936;2022-10-15T10:11:01;98550.12;;;19.67;49.20
61361;BME280;47232;47.506;18.936;2022-10-15T10:13:49;98545.33;;;19.61;48.13
61361;BME280;47232;47.506;18.936;2022-10-15T10:16:17;98546.03;;;19.53;48.66
61361;BME280;47232;47.506;18.936;2022-10-15T10:18:43;98554.80;;;19.49;48.49
61361;BME280;47232;47.506;18.936;2022-10-15T10:21:30;98560.42;;;19.46;48.37
61361;BME280;47232;47.506;18.936;2022-10-15T10:24:45;98565.33;;;19.45;48.48
61361;BME280;47232;47.506;18.936;2022-10-15T10:26:46;98554.10;;;19.41;48.64
61361;BME280;47232;47.506;18.936;2022-10-15T10:29:20;98551.25;;;19.38;49.21
61361;BME280;47232;47.506;18.936;2022-10-15T10:31:47;98552.42;;;19.44;49.10
61361;BME280;47232;47.506;18.936;2022-10-15T10:34:20;98542.38;;;19.49;49.37
61361;BME280;47232;47.506;18.936;2022-10-15T10:36:50;98539.48;;;19.54;49.09
61361;BME280;47232;47.506;18.936;2022-10-15T10:39:30;98537.80;;;19.55;49.38
61361;BME280;47232;47.506;18.936;2022-10-15T10:41:59;98531.98;;;19.57;49.26
61361;BME280;47232;47.506;18.936;2022-10-15T10:44:37;98530.69;;;19.55;49.40
61361;BME280;47232;47.506;18.936;2022-10-15T10:47:15;98528.22;;;19.56;49.32
61361;BME280;47232;47.506;18.936;2022-10-15T10:49:52;98527.50;;;19.51;49.17
61361;BME280;47232;47.506;18.936;2022-10-15T10:52:27;98525.14;;;19.40;49.37
61361;BME280;47232;47.506;18.936;2022-10-15T10:57:41;98523.65;;;19.26;49.76
61361;BME280;47232;47.506;18.936;2022-10-15T11:00:14;98523.23;;;19.20;49.97
61361;BME280;47232;47.506;18.936;2022-10-15T11:02:41;98518.27;;;19.14;49.46
61361;BME280;47232;47.506;18.936;2022-10-15T11:05:10;98517.73;;;19.09;49.80
61361;BME280;47232;47.506;18.936;2022-10-15T11:07:45;98519.23;;;19.11;49.78
61361;BME280;47232;47.506;18.936;2022-10-15T11:10:25;98514.52;;;19.12;49.57
61361;BME280;47232;47.506;18.936;2022-10-15T11:15:54;98515.23;;;19.18;48.84
61361;BME280;47232;47.506;18.936;2022-10-15T11:24:10;98497.33;;;19.11;48.58
61361;BME280;47232;47.506;18.936;2022-10-15T11:29:56;98486.73;;;18.94;47.95
61361;BME280;47232;47.506;18.936;2022-10-15T11:49:13;98479.34;;;18.74;48.48
61361;BME280;47232;47.506;18.936;2022-10-15T11:54:42;98463.45;;;18.74;48.08
61361;BME280;47232;47.506;18.936;2022-10-15T11:57:15;98472.68;;;18.72;47.96
61361;BME280;47232;47.506;18.936;2022-10-15T11:59:55;98471.77;;;18.74;48.23
61361;BME280;47232;47.506;18.936;2022-10-15T12:02:36;98476.02;;;18.76;48.00
61361;BME280;47232;47.506;18.936;2022-10-15T12:05:07;98476.54;;;18.71;47.98
61361;BME280;47232;47.506;18.936;2022-10-15T12:07:41;98470.86;;;18.68;47.99
61361;BME280;47232;47.506;18.936;2022-10-15T12:18:24;98461.23;;;18.73;47.91
61361;BME280;47232;47.506;18.936;2022-10-15T12:20:51;98453.77;;;18.71;47.62
61361;BME280;47232;47.506;18.936;2022-10-15T12:23:38;98455.98;;;18.68;47.84
61361;BME280;47232;47.506;18.936;2022-10-15T12:26:26;98452.27;;;18.70;47.83
61361;BME280;47232;47.506;18.936;2022-10-15T12:28:54;98450.59;;;18.68;47.67
61361;BME280;47232;47.506;18.936;2022-10-15T12:31:20;98453.98;;;18.65;47.60
61361;BME280;47232;47.506;18.936;2022-10-15T12:36:31;98453.35;;;18.66;47.97
61361;BME280;47232;47.506;18.936;2022-10-15T12:39:04;98453.67;;;18.65;47.76
61361;BME280;47232;47.506;18.936;2022-10-15T12:41:38;98450.64;;;18.62;47.52
61361;BME280;47232;47.506;18.936;2022-10-15T12:46:41;98450.80;;;18.58;47.98
61361;BME280;47232;47.506;18.936;2022-10-15T12:51:52;98437.00;;;18.50;47.71
61361;BME280;47232;47.506;18.936;2022-10-15T13:00:27;98439.83;;;18.43;47.74
61361;BME280;47232;47.506;18.936;2022-10-15T13:02:54;98443.77;;;18.41;47.93
61361;BME280;47232;47.506;18.936;2022-10-15T13:05:30;98441.74;;;18.42;47.94
61361;BME280;47232;47.506;18.936;2022-10-15T13:07:58;98451.36;;;18.43;47.70
61361;BME280;47232;47.506;18.936;2022-10-15T13:10:33;98452.38;;;18.40;47.70
61361;BME280;47232;47.506;18.936;2022-10-15T13:13:04;98456.27;;;18.39;47.76
61361;BME280;47232;47.506;18.936;2022-10-15T13:15:30;98454.54;;;18.39;47.89
61361;BME280;47232;47.506;18.936;2022-10-15T13:17:58;98453.61;;;18.39;47.93
61361;BME280;47232;47.506;18.936;2022-10-15T13:20:41;98449.64;;;18.39;47.92
61361;BME280;47232;47.506;18.936;2022-10-15T13:25:34;98457.10;;;18.34;47.55
61361;BME280;47232;47.506;18.936;2022-10-15T13:27:59;98455.13;;;18.30;47.57
61361;BME280;47232;47.506;18.936;2022-10-15T13:30:25;98447.59;;;18.26;47.69
61361;BME280;47232;47.506;18.936;2022-10-15T13:32:52;98446.94;;;18.25;47.67
61361;BME280;47232;47.506;18.936;2022-10-15T13:35:21;98446.05;;;18.24;47.74
61361;BME280;47232;47.506;18.936;2022-10-15T13:37:48;98456.14;;;18.22;47.61
61361;BME280;47232;47.506;18.936;2022-10-15T13:40:25;98451.98;;;18.20;47.75
61361;BME280;47232;47.506;18.936;2022-10-15T13:43:02;98456.92;;;18.18;47.72
61361;BME280;47232;47.506;18.936;2022-10-15T13:45:28;98462.40;;;18.16;47.90
61361;BME280;47232;47.506;18.936;2022-10-15T13:47:55;98458.63;;;18.14;47.88
61361;BME280;47232;47.506;18.936;2022-10-15T13:50:23;98456.60;;;18.10;47.68
61361;BME280;47232;47.506;18.936;2022-10-15T13:55:23;98450.93;;;18.03;48.29
61361;BME280;47232;47.506;18.936;2022-10-15T13:57:58;98451.42;;;18.01;48.39
61361;BME280;47232;47.506;18.936;2022-10-15T14:00:27;98452.23;;;17.99;48.40
61361;BME280;47232;47.506;18.936;2022-10-15T14:03:18;98449.66;;;17.99;48.39
61361;BME280;47232;47.506;18.936;2022-10-15T14:05:45;98449.72;;;17.98;48.60
61361;BME280;47232;47.506;18.936;2022-10-15T14:10:41;98447.58;;;17.93;48.94
61361;BME280;47232;47.506;18.936;2022-10-15T14:13:09;98445.43;;;17.91;48.93
61361;BME280;47232;47.506;18.936;2022-10-15T14:18:36;98445.48;;;17.86;49.35
61361;BME280;47232;47.506;18.936;2022-10-15T14:21:10;98445.92;;;17.84;49.40
61361;BME280;47232;47.506;18.936;2022-10-15T14:23:37;98451.23;;;17.82;49.54
61361;BME280;47232;47.506;18.936;2022-10-15T14:26:03;98450.34;;;17.80;49.62
61361;BME280;47232;47.506;18.936;2022-10-15T14:28:31;98444.36;;;17.78;49.77
61361;BME280;47232;47.506;18.936;2022-10-15T14:30:59;98444.88;;;17.76;49.95
61361;BME280;47232;47.506;18.936;2022-10-15T14:38:35;98425.80;;;17.70;49.85
61361;BME280;47232;47.506;18.936;2022-10-15T14:41:19;98426.02;;;17.69;49.93
61361;BME280;47232;47.506;18.936;2022-10-15T14:43:45;98430.20;;;17.68;50.21
61361;BME280;47232;47.506;18.936;2022-10-15T14:46:16;98426.39;;;17.68;50.05
61361;BME280;47232;47.506;18.936;2022-10-15T14:48:43;98431.45;;;17.65;49.90
61361;BME280;47232;47.506;18.936;2022-10-15T14:51:18;98432.33;;;17.63;49.80
61361;BME280;47232;47.506;18.936;2022-10-15T14:53:45;98433.33;;;17.62;49.96
61361;BME280;47232;47.506;18.936;2022-10-15T14:56:23;98435.94;;;17.61;50.06
61361;BME280;47232;47.506;18.936;2022-10-15T14:58:56;98437.17;;;17.60;50.09
61361;BME280;47232;47.506;18.936;2022-10-15T15:01:22;98436.86;;;17.57;50.01